Balch, Arkansas
Current Conditions -  °F | °C
As of 8:56 PM on Wednesday 26 Nov 2014 (Local Time) from KM19 Reporting Station
Clear Clear  
Wind Chill: 36°   Ceiling: Unl
Heat Index: 42°   Visibility: 10mi
Dew Point: 29°   Wind: 9mph
Humidity: 61%   Direction: 290°WNW
Pressure: 30.18"   Gusts: NA
Location:  35.5533°N, 91.0796°W
Report Text: KM19 270256Z AUTO 29008KT 10SM CLR 06/M02 A3018 RMK AO2 51018 T00551016 SLP221
Loading
Personal Weather Stations






























Interactive Weather Map New forecast layout! Learn more

10-Day Weather Forecast

Advertisements
Track Severe Weather on mobile